Time;durP1;ratioP1;P1;durP2;ratioP2;P2;SDS_P1;SDS_P2;PMS_P1;PMS_P2;Temp;Humidity;BMP_temperature;BMP_pressure;BME280_temperature;BME280_humidity;BME280_pressure;Samples;Min_cycle;Max_cycle;Signal;HPM_P1;HPM_P2
2022/06/12 00:02:17;;;;;;;20.63;15.38;;;;;;;18.13;100.00;97237.25;5103842;28;20011;-87
2022/06/12 00:04:43;;;;;;;22.15;15.27;;;;;;;18.15;100.00;97237.13;5113001;28;20034;-88
2022/06/12 00:07:08;;;;;;;22.10;14.63;;;;;;;18.10;100.00;97231.28;5105414;27;20020;-88
2022/06/12 00:09:34;;;;;;;20.75;14.77;;;;;;;18.11;100.00;97227.59;5115961;27;20113;-88
2022/06/12 00:11:59;;;;;;;20.88;14.68;;;;;;;18.10;100.00;97223.16;5115228;28;20448;-88
2022/06/12 00:14:25;;;;;;;19.30;13.63;;;;;;;18.15;100.00;97226.31;5108962;27;20059;-88
2022/06/12 00:16:52;;;;;;;19.10;13.32;;;;;;;18.11;100.00;97227.59;5124627;27;20027;-87
2022/06/12 00:19:18;;;;;;;20.15;11.65;;;;;;;18.09;100.00;97224.19;5107335;27;20115;-86
2022/06/12 00:21:44;;;;;;;23.65;13.13;;;;;;;18.03;100.00;97211.22;5115920;27;20027;-87
2022/06/12 00:24:13;;;;;;;23.42;12.90;;;;;;;17.99;100.00;97212.53;5113141;27;20042;-87
2022/06/12 00:26:42;;;;;;;23.30;13.90;;;;;;;18.02;100.00;97214.94;5095061;28;20571;-87
2022/06/12 00:29:23;;;;;;;18.77;12.68;;;;;;;18.06;100.00;97205.50;5113693;28;20031;-87
2022/06/12 00:31:56;;;;;;;18.50;12.55;;;;;;;18.12;100.00;97202.22;5099717;28;20104;-86
2022/06/12 00:34:26;;;;;;;19.92;12.13;;;;;;;18.09;100.00;97200.66;5099046;28;20015;-88
2022/06/12 00:36:53;;;;;;;17.17;12.43;;;;;;;18.13;100.00;97190.38;5124215;28;20105;-88
2022/06/12 00:39:20;;;;;;;16.45;12.00;;;;;;;18.14;100.00;97197.50;5115628;28;20019;-88
2022/06/12 00:41:48;;;;;;;29.23;12.20;;;;;;;18.13;100.00;97190.38;5100817;28;20106;-88
2022/06/12 00:44:16;;;;;;;19.75;13.43;;;;;;;18.16;100.00;97195.50;5094635;28;20020;-88
2022/06/12 00:46:54;;;;;;;17.73;12.93;;;;;;;18.14;100.00;97190.25;5100347;28;20019;-88
2022/06/12 00:49:49;;;;;;;18.42;13.95;;;;;;;18.13;100.00;97190.38;5106165;28;20501;-88
2022/06/12 00:52:24;;;;;;;16.25;13.18;;;;;;;18.08;100.00;97188.16;5107055;28;20511;-88
2022/06/12 00:54:53;;;;;;;17.23;13.38;;;;;;;18.02;100.00;97182.47;5108223;28;20032;-87
2022/06/12 00:57:22;;;;;;;23.35;13.55;;;;;;;17.97;100.00;97184.75;5110685;28;20490;-88
2022/06/12 00:59:51;;;;;;;20.52;14.52;;;;;;;17.98;100.00;97187.31;5127403;27;20445;-88
2022/06/12 01:02:21;;;;;;;24.15;15.18;;;;;;;18.01;100.00;97180.75;5107277;28;20028;-88
2022/06/12 01:07:41;;;;;;;19.63;14.32;;;;;;;18.03;100.00;97189.56;5117258;27;20031;-87
2022/06/12 01:10:11;;;;;;;18.05;13.05;;;;;;;17.99;100.00;97175.50;5097698;28;20059;-87
2022/06/12 01:12:43;;;;;;;17.83;13.68;;;;;;;18.01;100.00;97183.47;5120236;28;20042;-87
2022/06/12 01:15:13;;;;;;;19.73;14.18;;;;;;;18.02;100.00;97174.34;5103539;28;20031;-88
2022/06/12 01:17:39;;;;;;;21.13;13.70;;;;;;;18.01;100.00;97170.78;5097602;28;20058;-88
2022/06/12 01:20:12;;;;;;;17.95;14.13;;;;;;;17.97;100.00;97168.50;5120189;28;20498;-88
2022/06/12 01:23:11;;;;;;;23.25;14.48;;;;;;;18.06;100.00;97179.31;5095064;28;20038;-87
2022/06/12 01:25:49;;;;;;;26.45;15.23;;;;;;;18.10;100.00;97179.84;5122010;27;20858;-88
2022/06/12 01:28:35;;;;;;;21.25;15.55;;;;;;;18.09;100.00;97172.75;5132977;27;20025;-88
2022/06/12 01:31:19;;;;;;;25.20;15.20;;;;;;;18.14;100.00;97171.28;5129291;27;20538;-88
2022/06/12 01:33:44;;;;;;;17.98;14.48;;;;;;;18.12;100.00;97178.69;5121331;27;20118;-87
2022/06/12 01:36:20;;;;;;;19.85;14.07;;;;;;;18.08;100.00;97165.63;5135979;27;20051;-88
2022/06/12 01:39:14;;;;;;;21.90;15.35;;;;;;;17.98;100.00;97170.22;5105041;28;20200;-88
2022/06/12 01:42:03;;;;;;;19.73;14.57;;;;;;;17.92;100.00;97168.13;5100918;27;20035;-89
2022/06/12 01:44:40;;;;;;;21.85;15.00;;;;;;;17.90;100.00;97170.13;5112114;27;20035;-88
2022/06/12 01:47:18;;;;;;;21.88;14.57;;;;;;;17.82;100.00;97173.56;5102876;28;20498;-88
2022/06/12 01:50:08;;;;;;;24.08;14.88;;;;;;;17.84;100.00;97174.31;5123645;27;20490;-88
2022/06/12 01:52:53;;;;;;;22.60;16.33;;;;;;;17.83;100.00;97181.56;5116531;27;20027;-88
2022/06/12 01:55:44;;;;;;;23.95;16.27;;;;;;;17.84;100.00;97196.78;5119057;27;20141;-87
2022/06/12 01:58:21;;;;;;;20.30;15.40;;;;;;;17.81;100.00;97196.25;5092637;28;20032;-88
2022/06/12 02:01:03;;;;;;;33.67;17.58;;;;;;;17.74;100.00;97192.41;5096588;28;20034;-88
2022/06/12 02:03:34;;;;;;;20.77;15.75;;;;;;;17.69;100.00;97187.44;5105371;28;20118;-88
2022/06/12 02:06:11;;;;;;;22.63;16.73;;;;;;;17.75;100.00;97197.66;5098886;28;20023;-88
2022/06/12 02:08:45;;;;;;;21.52;15.73;;;;;;;17.81;100.00;97202.47;5099775;27;20030;-88
2022/06/12 02:14:12;;;;;;;23.25;17.00;;;;;;;17.73;100.00;97183.44;5126912;27;20045;-87
2022/06/12 02:16:43;;;;;;;20.20;15.85;;;;;;;17.77;100.00;97178.59;5116631;27;20046;-88
2022/06/12 02:19:12;;;;;;;22.95;16.60;;;;;;;17.92;100.00;97195.19;5104058;28;20023;-88
2022/06/12 02:21:48;;;;;;;21.13;15.35;;;;;;;17.91;100.00;97190.75;5117172;27;20027;-88
2022/06/12 02:24:21;;;;;;;23.85;15.60;;;;;;;17.92;100.00;97193.34;5135181;27;20109;-88
2022/06/12 02:27:00;;;;;;;20.92;15.20;;;;;;;17.95;100.00;97195.75;5105285;27;20486;-88
2022/06/12 02:29:31;;;;;;;20.88;15.02;;;;;;;18.02;100.00;97201.41;5115987;27;20513;-88
2022/06/12 02:31:58;;;;;;;19.77;13.90;;;;;;;18.00;100.00;97195.28;5111049;27;20452;-88
2022/06/12 02:34:30;;;;;;;20.13;15.43;;;;;;;18.04;100.00;97196.69;5108821;28;20031;-88
2022/06/12 02:37:03;;;;;;;17.55;14.77;;;;;;;17.93;100.00;97183.38;5133788;27;20038;-88
2022/06/12 02:39:30;;;;;;;;;;;;;;;17.96;100.00;97194.75;5101827;28;20637;-89
2022/06/12 02:42:22;;;;;;;17.38;13.00;;;;;;;17.88;100.00;97191.91;5097196;28;19911;-88
2022/06/12 02:45:09;;;;;;;16.58;13.35;;;;;;;17.84;100.00;97177.84;5131020;27;20577;-88
2022/06/12 02:47:37;;;;;;;15.57;12.63;;;;;;;17.83;100.00;97178.00;5100473;28;20020;-87
2022/06/12 02:50:05;;;;;;;17.17;13.20;;;;;;;17.86;100.00;97178.56;5097390;28;20027;-89
2022/06/12 02:52:46;;;;;;;19.20;12.50;;;;;;;17.82;100.00;97176.28;5107682;27;20023;-88
2022/06/12 02:55:30;;;;;;;18.60;14.07;;;;;;;17.94;100.00;97190.47;5096902;27;20103;-88
2022/06/12 02:58:06;;;;;;;17.98;13.60;;;;;;;17.94;100.00;97191.31;5134228;27;20468;-87
2022/06/12 03:00:43;;;;;;;23.08;14.20;;;;;;;17.95;100.00;97182.22;5114602;27;20489;-88
2022/06/12 03:03:08;;;;;;;24.05;14.15;;;;;;;18.05;100.00;97190.28;5129269;27;20103;-89
2022/06/12 03:05:37;;;;;;;15.52;13.02;;;;;;;18.00;100.00;97187.16;5114877;28;20058;-88
2022/06/12 03:08:06;;;;;;;18.63;12.52;;;;;;;18.01;100.00;97188.88;5111761;28;20015;-88
2022/06/12 03:10:38;;;;;;;18.63;13.73;;;;;;;17.94;100.00;97168.81;5105471;27;20371;-88
2022/06/12 03:13:07;;;;;;;18.48;14.70;;;;;;;17.97;100.00;97185.63;5096529;28;20023;-88
2022/06/12 03:15:42;;;;;;;20.75;14.90;;;;;;;18.02;100.00;97190.59;5103516;27;20023;-88
2022/06/12 03:18:12;;;;;;;25.80;14.52;;;;;;;18.01;100.00;97191.59;5115995;27;20110;-88
2022/06/12 03:20:46;;;;;;;19.83;13.13;;;;;;;17.95;100.00;97192.19;5114769;27;20027;-88
2022/06/12 03:23:36;;;;;;;15.90;12.57;;;;;;;17.98;100.00;97190.03;5097429;28;20024;-87
2022/06/12 03:26:05;;;;;;;16.25;13.15;;;;;;;18.04;100.00;97185.88;5132264;27;20094;-88
2022/06/12 03:29:16;;;;;;;19.85;14.43;;;;;;;18.06;100.00;97189.28;5115757;27;20023;-88
2022/06/12 03:31:51;;;;;;;15.05;12.27;;;;;;;18.04;100.00;97177.75;5101143;27;20418;-88
2022/06/12 03:34:31;;;;;;;15.23;11.77;;;;;;;18.03;100.00;97181.44;5119480;27;20085;-88
2022/06/12 03:37:07;;;;;;;16.13;11.00;;;;;;;18.04;100.00;97181.31;5097193;27;20039;-88
2022/06/12 03:39:44;;;;;;;14.45;10.32;;;;;;;17.99;100.00;97182.78;5117349;27;20031;-88
2022/06/12 03:42:25;;;;;;;15.80;11.55;;;;;;;18.00;100.00;97168.22;5114579;27;20055;-88
2022/06/12 03:45:03;;;;;;;13.88;11.68;;;;;;;18.10;100.00;97169.03;5114783;27;20065;-88
2022/06/12 03:47:30;;;;;;;14.90;11.60;;;;;;;18.10;100.00;97180.72;5124911;27;20526;-88
2022/06/12 03:50:19;;;;;;;15.32;10.95;;;;;;;18.10;100.00;97187.97;5097609;27;20037;-89
2022/06/12 03:52:56;;;;;;;14.55;12.25;;;;;;;18.15;100.00;97183.81;5122917;27;20569;-88
2022/06/12 03:57:50;;;;;;;16.65;10.80;;;;;;;18.11;100.00;97186.97;5100772;27;20474;-88
2022/06/12 03:58:16;;;;;;;13.32;11.23;;;;;;;18.20;100.00;97186.06;5133130;27;20415;-88
2022/06/12 04:00:43;;;;;;;15.82;10.75;;;;;;;18.27;100.00;97187.19;5100761;27;20031;-88
2022/06/12 04:03:31;;;;;;;19.33;11.60;;;;;;;18.28;100.00;97194.28;5105160;27;20104;-89
2022/06/12 04:06:01;;;;;;;18.10;10.85;;;;;;;18.27;100.00;97198.84;5107523;28;20038;-87
2022/06/12 04:08:31;;;;;;;15.35;11.80;;;;;;;18.26;100.00;97190.88;5128360;27;20474;-89
2022/06/12 04:10:57;;;;;;;23.20;12.90;;;;;;;18.34;100.00;97201.81;5102643;28;20106;-89
2022/06/12 04:13:23;;;;;;;13.82;11.35;;;;;;;18.23;100.00;97186.63;5108692;27;20504;-89
2022/06/12 04:15:52;;;;;;;15.15;12.32;;;;;;;18.20;100.00;97192.34;5098694;28;20036;-88
2022/06/12 04:18:17;;;;;;;13.93;11.85;;;;;;;18.22;100.00;97193.03;5123133;27;20083;-88
2022/06/12 04:21:23;;;;;;;12.18;10.50;;;;;;;18.17;100.00;97197.22;5107414;28;20441;-89
2022/06/12 04:23:57;;;;;;;14.98;10.30;;;;;;;18.13;100.00;97203.91;5110351;27;20126;-89
2022/06/12 04:26:28;;;;;;;13.75;10.38;;;;;;;18.10;100.00;97204.22;5092322;28;20115;-89
2022/06/12 04:29:01;;;;;;;14.85;11.88;;;;;;;17.99;100.00;97193.59;5106118;28;20475;-89
2022/06/12 04:31:27;;;;;;;17.38;11.95;;;;;;;18.04;100.00;97196.69;5117407;27;20501;-88
2022/06/12 04:34:11;;;;;;;13.60;9.85;;;;;;;18.10;100.00;97204.22;5124234;28;20444;-89
2022/06/12 04:36:38;;;;;;;12.50;10.15;;;;;;;18.13;100.00;97203.91;5118922;27;20031;-89
2022/06/12 04:39:05;;;;;;;11.57;10.10;;;;;;;18.15;100.00;97210.88;5094936;28;20491;-88
2022/06/12 04:41:32;;;;;;;16.33;12.52;;;;;;;18.15;100.00;97205.47;5107690;28;20031;-89
2022/06/12 04:43:58;;;;;;;15.73;10.23;;;;;;;18.16;100.00;97200.91;5099574;27;20031;-89
2022/06/12 04:46:24;;;;;;;14.05;11.25;;;;;;;18.17;100.00;97206.19;5115308;28;20042;-89
2022/06/12 04:48:51;;;;;;;19.38;12.00;;;;;;;18.16;100.00;97212.59;5115472;28;20496;-88
2022/06/12 04:51:18;;;;;;;14.63;11.77;;;;;;;18.16;100.00;97218.00;5105032;28;20463;-90
2022/06/12 04:53:45;;;;;;;14.52;11.13;;;;;;;18.25;100.00;97222.53;5114390;28;20034;-89
2022/06/12 04:56:12;;;;;;;17.85;11.55;;;;;;;18.28;100.00;97234.91;5104180;28;20055;-89
2022/06/12 04:58:39;;;;;;;13.57;10.43;;;;;;;18.21;100.00;97226.53;5108067;28;20035;-89
2022/06/12 05:01:05;;;;;;;15.07;10.73;;;;;;;18.11;100.00;97236.56;5114300;27;20467;-89
2022/06/12 05:03:31;;;;;;;14.07;10.77;;;;;;;18.03;100.00;97227.47;5117547;27;20034;-88
2022/06/12 05:05:57;;;;;;;13.05;9.75;;;;;;;17.94;100.00;97233.78;5101845;28;20027;-89
2022/06/12 05:08:23;;;;;;;18.88;11.00;;;;;;;18.00;100.00;97249.41;5115945;27;20023;-88
2022/06/12 05:10:49;;;;;;;21.88;15.68;;;;;;;17.86;100.00;97251.63;5134481;27;20490;-90
2022/06/12 05:13:15;;;;;;;18.50;12.27;;;;;;;17.86;100.00;97264.28;5119019;27;20030;-79
2022/06/12 05:15:41;;;;;;;22.48;14.00;;;;;;;17.92;100.00;97273.66;5103484;28;20023;-79
2022/06/12 05:18:07;;;;;;;19.52;12.02;;;;;;;17.91;100.00;97267.41;5114281;28;20020;-79
2022/06/12 05:20:37;;;;;;;32.05;18.85;;;;;;;17.93;100.00;97273.53;5125658;27;20039;-78
2022/06/12 05:23:03;;;;;;;18.88;9.35;;;;;;;17.77;100.00;97262.47;5114838;27;20398;-78
2022/06/12 05:25:30;;;;;;;8.48;6.65;;;;;;;17.69;100.00;97265.88;5130262;27;20020;-78
2022/06/12 05:27:56;;;;;;;15.75;9.25;;;;;;;17.71;100.00;97280.16;5105544;28;20058;-78
2022/06/12 05:30:24;;;;;;;18.58;12.45;;;;;;;17.80;100.00;97279.28;5096745;28;20115;-78
2022/06/12 05:32:51;;;;;;;9.95;7.40;;;;;;;17.84;100.00;97272.53;5116352;27;20035;-77
2022/06/12 05:35:18;;;;;;;15.70;8.55;;;;;;;17.88;100.00;97281.22;5121623;27;20030;-77
2022/06/12 05:37:45;;;;;;;9.85;6.60;;;;;;;17.94;100.00;97279.78;5116632;27;20421;-78
2022/06/12 05:40:14;;;;;;;11.15;8.10;;;;;;;17.98;100.00;97278.50;5112356;27;20128;-78
2022/06/12 05:42:40;;;;;;;16.17;8.73;;;;;;;18.12;100.00;97294.28;5116031;27;20038;-78
2022/06/12 05:45:09;;;;;;;12.88;8.57;;;;;;;18.25;100.00;97292.06;5113992;27;20030;-78
2022/06/12 05:47:35;;;;;;;13.07;10.85;;;;;;;18.33;100.00;97289.50;5116982;27;20027;-78
2022/06/12 05:50:01;;;;;;;14.27;9.52;;;;;;;18.26;100.00;97285.66;5100537;28;20076;-78
2022/06/12 05:52:26;;;;;;;13.93;9.60;;;;;;;18.29;100.00;97297.06;5112106;27;20474;-78
2022/06/12 05:54:52;;;;;;;14.00;10.07;;;;;;;18.29;100.00;97285.38;5116584;27;20031;-78
2022/06/12 05:57:18;;;;;;;11.43;7.80;;;;;;;18.34;100.00;97302.00;5116804;27;20490;-78
2022/06/12 05:59:43;;;;;;;16.17;10.40;;;;;;;18.29;100.00;97296.19;5107048;27;20492;-78
2022/06/12 06:02:10;;;;;;;13.40;9.73;;;;;;;18.44;100.00;97297.41;5126269;27;20023;-78
2022/06/12 06:04:35;;;;;;;10.40;8.35;;;;;;;18.47;100.00;97307.94;5116537;27;20031;-79
2022/06/12 06:07:01;;;;;;;9.93;7.78;;;;;;;18.57;100.00;97311.50;5116742;27;20024;-79
2022/06/12 06:09:28;;;;;;;10.38;7.05;;;;;;;18.78;100.00;97314.81;5103761;27;20030;-78
2022/06/12 06:11:54;;;;;;;8.82;6.95;;;;;;;19.06;100.00;97314.78;5098184;27;20076;-77
2022/06/12 06:14:19;;;;;;;8.40;7.20;;;;;;;19.31;100.00;97314.88;5133971;27;20015;-79
2022/06/12 06:16:46;;;;;;;10.48;7.22;;;;;;;19.35;100.00;97304.53;5133331;27;20027;-79
2022/06/12 06:19:13;;;;;;;9.32;7.00;;;;;;;19.34;100.00;97300.16;5125024;27;20016;-80
2022/06/12 06:21:40;;;;;;;15.10;8.00;;;;;;;19.30;100.00;97301.47;5112592;27;20047;-79
2022/06/12 06:24:07;;;;;;;8.90;7.40;;;;;;;19.35;100.00;97304.53;5134450;27;20049;-80
2022/06/12 06:26:33;;;;;;;8.90;6.70;;;;;;;19.31;100.00;97308.59;5130617;27;20422;-79
2022/06/12 06:28:58;;;;;;;11.13;6.28;;;;;;;19.31;100.00;97314.03;5114887;27;20083;-79
2022/06/12 06:31:26;;;;;;;9.05;6.95;;;;;;;19.23;100.00;97311.22;5106479;28;20482;-79
2022/06/12 06:33:51;;;;;;;8.32;7.00;;;;;;;19.18;100.00;97314.41;5096048;28;20035;-79
2022/06/12 06:36:17;;;;;;;9.43;7.78;;;;;;;19.15;100.00;97311.13;5098226;28;20406;-79
2022/06/12 06:38:45;;;;;;;9.93;8.15;;;;;;;19.06;100.00;97315.63;5103623;28;20047;-79
2022/06/12 06:41:12;;;;;;;11.35;8.75;;;;;;;19.15;100.00;97320.13;5111853;27;20027;-78
2022/06/12 06:46:22;;;;;;;19.42;12.45;;;;;;;19.09;100.00;97325.31;5126956;27;20110;-78
2022/06/12 06:48:48;;;;;;;14.75;11.35;;;;;;;18.91;100.00;97325.28;5095362;28;20496;-78
2022/06/12 06:51:14;;;;;;;10.63;9.20;;;;;;;18.86;100.00;97331.16;5095114;28;20063;-78
2022/06/12 06:53:40;;;;;;;15.32;10.60;;;;;;;18.87;100.00;97330.16;5115206;27;20108;-78
2022/06/12 06:56:06;;;;;;;10.73;8.70;;;;;;;18.84;100.00;97325.03;5115537;27;20110;-79
2022/06/12 06:58:32;;;;;;;13.30;9.52;;;;;;;18.75;100.00;97317.81;5126979;27;20042;-79
2022/06/12 07:00:58;;;;;;;26.17;18.38;;;;;;;18.84;100.00;97327.75;5107593;28;20032;-79
2022/06/12 07:03:24;;;;;;;32.85;11.45;;;;;;;18.78;100.00;97322.94;5129451;27;20085;-79
2022/06/12 07:05:51;;;;;;;16.42;10.23;;;;;;;18.82;100.00;97327.06;5120512;27;20026;-79
2022/06/12 07:08:17;;;;;;;14.10;9.80;;;;;;;18.89;100.00;97330.00;5132757;27;20023;-79
2022/06/12 07:10:43;;;;;;;10.90;8.98;;;;;;;18.81;100.00;97333.47;5115440;27;20042;-79
2022/06/12 07:13:09;;;;;;;11.45;9.60;;;;;;;18.86;100.00;97335.72;5115196;27;20031;-80
2022/06/12 07:15:36;;;;;;;13.88;9.73;;;;;;;19.00;100.00;97345.22;5132420;27;20026;-79
2022/06/12 07:18:04;;;;;;;13.45;9.43;;;;;;;18.98;100.00;97341.81;5106749;28;20438;-80
2022/06/12 07:20:32;;;;;;;13.23;9.63;;;;;;;19.03;100.00;97344.91;5094841;28;20031;-81
2022/06/12 07:22:57;;;;;;;10.93;9.25;;;;;;;19.23;100.00;97351.88;5110989;27;20448;-80
2022/06/12 07:25:24;;;;;;;10.18;8.32;;;;;;;19.28;100.00;97349.59;5115182;27;20087;-80
2022/06/12 07:27:50;;;;;;;16.08;9.07;;;;;;;19.27;100.00;97347.88;5095228;28;20398;-79
2022/06/12 07:30:19;;;;;;;9.48;8.25;;;;;;;19.30;100.00;97356.56;5121332;27;20472;-79
2022/06/12 07:32:45;;;;;;;10.70;9.20;;;;;;;19.47;100.00;97360.34;5132200;27;20050;-79
2022/06/12 07:35:12;;;;;;;20.27;15.05;;;;;;;19.56;100.00;97351.28;5122918;27;20477;-80
2022/06/12 07:37:38;;;;;;;11.52;8.77;;;;;;;19.76;100.00;97357.38;5108259;28;20047;-79
2022/06/12 07:40:11;;;;;;;9.52;7.68;;;;;;;20.02;100.00;97352.84;5127973;27;20038;-79
2022/06/12 07:42:37;;;;;;;10.65;8.15;;;;;;;20.13;100.00;97349.00;5113881;27;20495;-79
2022/06/12 07:45:03;;;;;;;12.25;9.27;;;;;;;20.45;100.00;97357.41;5105675;28;20030;-79
2022/06/12 07:47:29;;;;;;;9.57;7.43;;;;;;;20.35;100.00;97353.94;5096669;27;20479;-79
2022/06/12 07:49:54;;;;;;;10.82;8.15;;;;;;;20.15;100.00;97358.69;5114653;27;20027;-80
2022/06/12 07:52:21;;;;;;;8.43;7.25;;;;;;;20.19;100.00;97362.81;5124150;27;20027;-78
2022/06/12 07:54:46;;;;;;;8.88;7.90;;;;;;;20.17;100.00;97361.25;5130349;27;20034;-79
2022/06/12 07:57:12;;;;;;;9.00;7.63;;;;;;;20.16;100.00;97351.41;5131421;27;20498;-79
2022/06/12 07:59:37;;;;;;;8.98;8.07;;;;;;;20.11;100.00;97357.31;5131537;27;20022;-80
2022/06/12 08:02:04;;;;;;;10.65;8.18;;;;;;;20.15;100.00;97363.28;5098856;28;20483;-79
2022/06/12 08:04:30;;;;;;;9.70;7.55;;;;;;;20.00;100.00;97366.56;5096259;27;20031;-79
2022/06/12 08:06:56;;;;;;;9.15;8.15;;;;;;;19.90;100.00;97354.94;5108564;28;20027;-80
2022/06/12 08:09:22;;;;;;;8.95;7.43;;;;;;;20.06;100.00;97356.09;5119233;27;20401;-80
2022/06/12 08:11:49;;;;;;;12.98;9.57;;;;;;;20.19;100.00;97360.09;5100341;28;20030;-79
2022/06/12 08:14:17;;;;;;;8.93;7.68;;;;;;;20.43;100.00;97363.00;5094151;28;20019;-80
2022/06/12 08:16:42;;;;;;;9.35;7.40;;;;;;;20.54;100.00;97348.28;5093656;28;20035;-79
2022/06/12 08:21:54;;;;;;;8.45;6.63;;;;;;;20.98;100.00;97354.41;5131799;27;20084;-80
2022/06/12 08:24:20;;;;;;;8.25;6.18;;;;;;;21.08;100.00;97346.97;5113943;28;20490;-78
2022/06/12 08:26:46;;;;;;;7.95;6.43;;;;;;;21.11;100.00;97345.81;5113507;27;20027;-79
2022/06/12 08:29:12;;;;;;;9.27;7.97;;;;;;;21.32;100.00;97352.53;5117941;27;20028;-78
2022/06/12 08:31:48;;;;;;;8.13;6.90;;;;;;;21.61;100.00;97355.66;5096181;27;20031;-80
2022/06/12 08:34:31;;;;;;;7.85;7.05;;;;;;;22.01;100.00;97352.13;5113692;28;20092;-80
2022/06/12 08:36:59;;;;;;;;;;;;;;;22.31;100.00;97357.88;5095171;28;20110;-79
2022/06/12 08:39:25;;;;;;;9.70;6.95;;;;;;;22.17;100.00;97353.13;5118851;27;19915;-79
2022/06/12 08:42:12;;;;;;;18.15;9.00;;;;;;;22.01;100.00;97354.84;5103239;27;20500;-79
2022/06/12 08:44:50;;;;;;;7.53;6.68;;;;;;;22.20;100.00;97345.47;5123433;27;20084;-80
2022/06/12 08:47:27;;;;;;;8.02;6.53;;;;;;;22.60;100.00;97352.72;5130904;27;20421;-81
2022/06/12 08:50:34;;;;;;;6.68;5.40;;;;;;;23.28;100.00;97352.13;5130822;27;20064;-79
2022/06/12 08:53:06;;;;;;;7.75;5.80;;;;;;;23.61;100.00;97356.41;5052041;28;20039;-80
2022/06/12 08:55:40;;;;;;;6.38;5.53;;;;;;;23.45;100.00;97349.16;5052214;28;20104;-81
2022/06/12 08:58:18;;;;;;;9.32;5.95;;;;;;;23.56;100.00;97361.56;5084129;28;20411;-79
2022/06/12 09:00:44;;;;;;;7.10;6.05;;;;;;;23.53;100.00;97360.00;5096135;28;20499;-78
2022/06/12 09:03:31;;;;;;;6.85;6.15;;;;;;;23.33;100.00;97360.63;5093216;28;20031;-80
2022/06/12 09:06:11;;;;;;;6.75;6.05;;;;;;;22.82;100.00;97362.06;5110386;28;20043;-79
2022/06/12 09:08:48;;;;;;;10.18;6.53;;;;;;;22.56;100.00;97362.25;5093045;28;20031;-79
2022/06/12 09:11:24;;;;;;;10.50;7.47;;;;;;;22.27;100.00;97356.53;5105040;28;20103;-80
2022/06/12 09:14:08;;;;;;;10.40;7.95;;;;;;;22.46;100.00;97362.44;5115724;28;20080;-78
2022/06/12 09:16:40;;;;;;;10.98;7.07;;;;;;;22.93;100.00;97370.72;5099623;28;20027;-79
2022/06/12 09:19:14;;;;;;;13.82;7.78;;;;;;;23.26;100.00;97376.03;5120900;28;20024;-78
2022/06/12 09:21:53;;;;;;;9.00;7.85;;;;;;;23.72;100.00;97375.09;5110086;28;20047;-77
2022/06/12 09:24:25;;;;;;;16.33;10.02;;;;;;;23.64;100.00;97373.28;5115161;27;20024;-78
2022/06/12 09:27:03;;;;;;;10.70;6.95;;;;;;;23.66;100.00;97373.94;5114401;28;20120;-79
2022/06/12 09:29:56;;;;;;;8.45;7.18;;;;;;;23.26;100.00;97365.13;5120500;27;20506;-78
2022/06/12 09:32:33;;;;;;;9.95;7.80;;;;;;;23.30;100.00;97385.56;5097976;28;20020;-79
2022/06/12 09:35:02;;;;;;;15.18;8.77;;;;;;;23.49;100.00;97383.28;5122670;28;20059;-78
2022/06/12 09:41:08;;;;;;;9.77;8.45;;;;;;;23.50;100.00;97374.03;5110698;28;20047;-80
2022/06/12 09:43:40;;;;;;;9.17;7.47;;;;;;;23.21;100.00;97374.69;5107368;28;20051;-77
2022/06/12 09:46:08;;;;;;;11.25;9.25;;;;;;;23.33;100.00;97380.59;5123310;27;20076;-79
2022/06/12 09:49:06;;;;;;;11.80;8.70;;;;;;;23.54;100.00;97383.56;5117753;27;20040;-79
2022/06/12 09:51:57;;;;;;;8.27;7.47;;;;;;;23.87;100.00;97386.09;5118725;27;20043;-78
2022/06/12 09:54:32;;;;;;;9.30;7.97;;;;;;;23.57;100.00;97376.91;5120980;27;20545;-79
2022/06/12 09:57:17;;;;;;;12.80;7.97;;;;;;;22.71;100.00;97366.00;5135361;27;20160;-79
2022/06/12 09:59:50;;;;;;;9.00;7.97;;;;;;;22.92;100.00;97358.09;5134844;27;20027;-79
2022/06/12 10:02:55;;;;;;;9.02;7.80;;;;;;;23.37;100.00;97361.97;5134453;27;20091;-80
2022/06/12 10:05:47;;;;;;;12.02;7.88;;;;;;;23.87;100.00;97362.34;5122122;27;20039;-80
2022/06/12 10:08:21;;;;;;;;;;;;;;;24.14;100.00;97363.72;5130655;27;20030;-79
2022/06/12 10:10:49;;;;;;;10.32;7.63;;;;;;;24.27;100.00;97364.75;5100551;28;20303;-79
2022/06/12 10:13:22;;;;;;;7.18;6.47;;;;;;;24.15;100.00;97355.31;5131543;27;20033;-80
2022/06/12 10:15:56;;;;;;;9.07;7.07;;;;;;;24.51;100.00;97351.91;5133571;27;20114;-79
2022/06/12 10:18:27;;;;;;;10.40;6.88;;;;;;;24.65;99.94;97353.78;5116148;27;20069;-79
2022/06/12 10:21:00;;;;;;;7.97;6.57;;;;;;;24.13;97.95;97349.19;5096792;28;20456;-80
2022/06/12 10:23:26;;;;;;;7.78;6.38;;;;;;;24.14;100.00;97344.56;5115727;27;20547;-80
2022/06/12 10:25:59;;;;;;;7.65;6.88;;;;;;;24.47;100.00;97350.56;5117729;27;20223;-78
2022/06/12 10:28:34;;;;;;;7.53;6.53;;;;;;;24.67;98.39;97341.63;5099612;28;20154;-80
2022/06/12 10:31:09;;;;;;;7.20;6.43;;;;;;;24.61;94.21;97345.09;5125753;27;20019;-79
2022/06/12 10:33:47;;;;;;;7.45;6.70;;;;;;;24.50;96.14;97345.59;5132868;27;20138;-79
2022/06/12 10:36:30;;;;;;;11.73;7.93;;;;;;;24.17;99.76;97345.06;5119027;27;20530;-79
2022/06/12 10:39:13;;;;;;;16.17;11.55;;;;;;;23.96;98.79;97341.28;5115060;27;20023;-80
2022/06/12 10:41:49;;;;;;;13.02;6.88;;;;;;;23.43;100.00;97347.63;5121648;27;20061;-79
2022/06/12 10:44:38;;;;;;;7.93;7.13;;;;;;;23.16;100.00;97341.59;5115535;27;20505;-80
2022/06/12 10:47:31;;;;;;;8.77;7.40;;;;;;;23.01;100.00;97348.00;5116152;27;20031;-78
2022/06/12 10:50:03;;;;;;;13.52;6.80;;;;;;;22.90;100.00;97342.91;5122888;27;20035;-81
2022/06/12 10:52:28;;;;;;;7.78;6.97;;;;;;;23.05;100.00;97333.81;5132087;27;20034;-79
2022/06/12 10:54:54;;;;;;;8.35;7.03;;;;;;;23.18;100.00;97331.38;5115053;27;20027;-80
2022/06/12 10:57:31;;;;;;;10.10;6.20;;;;;;;23.58;100.00;97332.19;5109731;28;20548;-81
2022/06/12 11:00:18;;;;;;;7.50;6.45;;;;;;;24.01;99.03;97331.50;5131166;27;20029;-81
2022/06/12 11:03:05;;;;;;;8.25;6.03;;;;;;;24.22;94.87;97330.81;5119447;27;20015;-81
2022/06/12 11:05:34;;;;;;;8.13;5.40;;;;;;;24.58;93.01;97329.06;5099304;28;20027;-81
2022/06/12 11:08:19;;;;;;;6.97;5.90;;;;;;;25.08;91.29;97333.81;5128383;27;20390;-81
2022/06/12 11:10:52;;;;;;;7.15;5.57;;;;;;;25.54;85.19;97328.06;5119438;27;20023;-82
2022/06/12 11:13:32;;;;;;;6.15;5.55;;;;;;;26.21;81.82;97337.63;5133493;27;20057;-82
2022/06/12 11:16:12;;;;;;;9.10;5.78;;;;;;;26.80;79.21;97331.75;5130191;27;20443;-82
2022/06/12 11:18:50;;;;;;;6.43;5.82;;;;;;;27.13;80.24;97326.47;5112749;28;20028;-82
2022/06/12 11:21:28;;;;;;;6.03;5.43;;;;;;;27.90;71.74;97330.53;5128164;27;20027;-83
2022/06/12 11:24:16;;;;;;;7.60;5.82;;;;;;;28.44;66.86;97308.38;5125275;27;20058;-83
2022/06/12 11:27:08;;;;;;;6.22;5.20;;;;;;;29.04;64.75;97318.25;5112088;28;20024;-82
2022/06/12 11:29:59;;;;;;;11.98;5.32;;;;;;;29.56;60.38;97306.19;5095940;27;20019;-83
2022/06/12 11:32:47;;;;;;;8.30;5.55;;;;;;;30.37;59.74;97305.44;5123535;27;20039;-83
2022/06/12 11:35:52;;;;;;;7.97;6.03;;;;;;;31.09;56.10;97296.50;5124665;27;20519;-81
2022/06/12 11:38:20;;;;;;;6.65;5.30;;;;;;;31.82;54.20;97300.00;5106731;27;20142;-83
2022/06/12 11:41:36;;;;;;;5.45;4.95;;;;;;;32.33;53.20;97284.78;5123943;27;20027;-83
2022/06/12 11:44:11;;;;;;;7.65;5.60;;;;;;;31.50;54.01;97296.63;5081227;28;20127;-81
2022/06/12 11:47:03;;;;;;;7.43;6.38;;;;;;;32.15;54.01;97297.63;5116629;27;20502;-82
2022/06/12 11:49:40;;;;;;;8.00;5.57;;;;;;;33.29;48.67;97281.53;5090104;27;20503;-82
2022/06/12 11:52:28;;;;;;;8.98;6.32;;;;;;;32.89;48.23;97276.72;5115968;27;20057;-83
2022/06/12 11:55:16;;;;;;;8.75;5.35;;;;;;;32.57;48.71;97273.50;5125903;27;20051;-85
2022/06/12 11:58:03;;;;;;;6.45;5.00;;;;;;;31.80;50.32;97284.72;5118424;27;20028;-84
2022/06/12 12:00:34;;;;;;;11.48;5.55;;;;;;;31.46;52.57;97276.03;5104836;27;20436;-83